sensor_id;sensor_type;location;lat;lon;timestamp;temperature;humidity
23147;DHT22;11742;53.532;-1.478;2023-12-20T00:00:02;10.40;99.90
23147;DHT22;11742;53.532;-1.478;2023-12-20T00:02:47;10.40;99.90
23147;DHT22;11742;53.532;-1.478;2023-12-20T00:05:32;10.50;99.90
23147;DHT22;11742;53.532;-1.478;2023-12-20T00:08:17;10.40;99.90
23147;DHT22;11742;53.532;-1.478;2023-12-20T00:11:01;10.40;99.90
23147;DHT22;11742;53.532;-1.478;2023-12-20T00:13:46;10.40;99.90
23147;DHT22;11742;53.532;-1.478;2023-12-20T00:16:30;10.40;99.90
23147;DHT22;11742;53.532;-1.478;2023-12-20T00:19:16;10.40;99.90
23147;DHT22;11742;53.532;-1.478;2023-12-20T00:22:00;10.40;99.90
23147;DHT22;11742;53.532;-1.478;2023-12-20T00:24:44;10.40;99.90
23147;DHT22;11742;53.532;-1.478;2023-12-20T00:27:28;10.40;99.90
23147;DHT22;11742;53.532;-1.478;2023-12-20T00:30:14;10.40;99.90
23147;DHT22;11742;53.532;-1.478;2023-12-20T00:32:58;10.40;99.90
23147;DHT22;11742;53.532;-1.478;2023-12-20T00:35:42;10.40;99.90
23147;DHT22;11742;53.532;-1.478;2023-12-20T00:38:27;10.40;99.90
23147;DHT22;11742;53.532;-1.478;2023-12-20T00:41:11;10.40;99.90
23147;DHT22;11742;53.532;-1.478;2023-12-20T00:43:55;10.40;99.90
23147;DHT22;11742;53.532;-1.478;2023-12-20T00:46:40;10.40;99.90
23147;DHT22;11742;53.532;-1.478;2023-12-20T00:49:25;10.40;99.90
23147;DHT22;11742;53.532;-1.478;2023-12-20T00:52:09;10.40;99.90
23147;DHT22;11742;53.532;-1.478;2023-12-20T00:54:53;10.40;99.90
23147;DHT22;11742;53.532;-1.478;2023-12-20T00:57:37;10.40;99.90
23147;DHT22;11742;53.532;-1.478;2023-12-20T01:00:21;10.40;99.90
23147;DHT22;11742;53.532;-1.478;2023-12-20T01:03:05;10.40;99.90
23147;DHT22;11742;53.532;-1.478;2023-12-20T01:05:49;10.40;99.90
23147;DHT22;11742;53.532;-1.478;2023-12-20T01:08:34;10.40;99.90
23147;DHT22;11742;53.532;-1.478;2023-12-20T01:11:19;10.40;99.90
23147;DHT22;11742;53.532;-1.478;2023-12-20T01:14:03;10.40;99.90
23147;DHT22;11742;53.532;-1.478;2023-12-20T01:16:47;10.40;99.90
23147;DHT22;11742;53.532;-1.478;2023-12-20T01:19:31;10.40;99.90
23147;DHT22;11742;53.532;-1.478;2023-12-20T01:22:16;10.40;99.90
23147;DHT22;11742;53.532;-1.478;2023-12-20T01:25:00;10.40;99.90
23147;DHT22;11742;53.532;-1.478;2023-12-20T01:27:44;10.40;99.90
23147;DHT22;11742;53.532;-1.478;2023-12-20T01:30:28;10.40;99.90
23147;DHT22;11742;53.532;-1.478;2023-12-20T01:33:12;10.40;99.90
23147;DHT22;11742;53.532;-1.478;2023-12-20T01:35:56;10.40;99.90
23147;DHT22;11742;53.532;-1.478;2023-12-20T01:38:41;10.40;99.90
23147;DHT22;11742;53.532;-1.478;2023-12-20T01:41:25;10.40;99.90
23147;DHT22;11742;53.532;-1.478;2023-12-20T01:44:10;10.40;99.90
23147;DHT22;11742;53.532;-1.478;2023-12-20T01:46:54;10.40;99.90
23147;DHT22;11742;53.532;-1.478;2023-12-20T01:49:39;10.40;99.90
23147;DHT22;11742;53.532;-1.478;2023-12-20T01:52:24;10.40;99.90
23147;DHT22;11742;53.532;-1.478;2023-12-20T01:55:09;10.40;99.90
23147;DHT22;11742;53.532;-1.478;2023-12-20T01:57:58;10.40;99.90
23147;DHT22;11742;53.532;-1.478;2023-12-20T02:00:43;10.40;99.90
23147;DHT22;11742;53.532;-1.478;2023-12-20T02:03:27;10.40;99.90
23147;DHT22;11742;53.532;-1.478;2023-12-20T02:06:11;10.40;99.90
23147;DHT22;11742;53.532;-1.478;2023-12-20T02:08:56;10.40;99.90
23147;DHT22;11742;53.532;-1.478;2023-12-20T02:11:41;10.50;99.90
23147;DHT22;11742;53.532;-1.478;2023-12-20T02:14:25;10.40;99.90
23147;DHT22;11742;53.532;-1.478;2023-12-20T02:17:10;10.40;99.90
23147;DHT22;11742;53.532;-1.478;2023-12-20T02:19:54;10.40;99.90
23147;DHT22;11742;53.532;-1.478;2023-12-20T02:22:39;10.40;99.90
23147;DHT22;11742;53.532;-1.478;2023-12-20T02:25:23;10.40;99.90
23147;DHT22;11742;53.532;-1.478;2023-12-20T02:28:07;10.40;99.90
23147;DHT22;11742;53.532;-1.478;2023-12-20T02:30:52;10.40;99.90
23147;DHT22;11742;53.532;-1.478;2023-12-20T02:33:40;10.40;99.90
23147;DHT22;11742;53.532;-1.478;2023-12-20T02:36:26;10.40;99.90
23147;DHT22;11742;53.532;-1.478;2023-12-20T02:39:10;10.40;99.90
23147;DHT22;11742;53.532;-1.478;2023-12-20T02:41:54;10.40;99.90
23147;DHT22;11742;53.532;-1.478;2023-12-20T02:44:38;10.40;99.90
23147;DHT22;11742;53.532;-1.478;2023-12-20T02:47:22;10.40;99.90
23147;DHT22;11742;53.532;-1.478;2023-12-20T02:50:06;10.40;99.90
23147;DHT22;11742;53.532;-1.478;2023-12-20T02:52:51;10.40;99.90
23147;DHT22;11742;53.532;-1.478;2023-12-20T02:55:35;10.40;99.90
23147;DHT22;11742;53.532;-1.478;2023-12-20T02:58:19;10.40;99.90
23147;DHT22;11742;53.532;-1.478;2023-12-20T03:01:04;10.50;99.90
23147;DHT22;11742;53.532;-1.478;2023-12-20T03:03:48;10.40;99.90
23147;DHT22;11742;53.532;-1.478;2023-12-20T03:06:32;10.50;99.90
23147;DHT22;11742;53.532;-1.478;2023-12-20T03:09:16;10.50;99.90
23147;DHT22;11742;53.532;-1.478;2023-12-20T03:12:01;10.50;99.90
23147;DHT22;11742;53.532;-1.478;2023-12-20T03:14:45;10.50;99.90
23147;DHT22;11742;53.532;-1.478;2023-12-20T03:17:29;10.40;99.90
23147;DHT22;11742;53.532;-1.478;2023-12-20T03:20:13;10.50;99.90
23147;DHT22;11742;53.532;-1.478;2023-12-20T03:22:57;10.50;99.90
23147;DHT22;11742;53.532;-1.478;2023-12-20T03:25:41;10.50;99.90
23147;DHT22;11742;53.532;-1.478;2023-12-20T03:28:27;10.50;99.90
23147;DHT22;11742;53.532;-1.478;2023-12-20T03:31:11;10.50;99.90
23147;DHT22;11742;53.532;-1.478;2023-12-20T03:33:56;10.50;99.90
23147;DHT22;11742;53.532;-1.478;2023-12-20T03:36:40;10.50;99.90
23147;DHT22;11742;53.532;-1.478;2023-12-20T03:39:24;10.50;99.90
23147;DHT22;11742;53.532;-1.478;2023-12-20T03:42:08;10.50;99.90
23147;DHT22;11742;53.532;-1.478;2023-12-20T03:44:53;10.50;99.90
23147;DHT22;11742;53.532;-1.478;2023-12-20T03:47:37;10.50;99.90
23147;DHT22;11742;53.532;-1.478;2023-12-20T03:50:24;10.50;99.90
23147;DHT22;11742;53.532;-1.478;2023-12-20T03:53:08;10.50;99.90
23147;DHT22;11742;53.532;-1.478;2023-12-20T03:55:53;10.50;99.90
23147;DHT22;11742;53.532;-1.478;2023-12-20T03:58:36;10.50;99.90
23147;DHT22;11742;53.532;-1.478;2023-12-20T04:01:21;10.60;99.90
23147;DHT22;11742;53.532;-1.478;2023-12-20T04:04:05;10.60;99.90
23147;DHT22;11742;53.532;-1.478;2023-12-20T04:06:49;10.50;99.90
23147;DHT22;11742;53.532;-1.478;2023-12-20T04:09:33;10.50;99.90
23147;DHT22;11742;53.532;-1.478;2023-12-20T04:12:17;10.60;99.90
23147;DHT22;11742;53.532;-1.478;2023-12-20T04:15:01;10.60;99.90
23147;DHT22;11742;53.532;-1.478;2023-12-20T04:17:47;10.60;99.90
23147;DHT22;11742;53.532;-1.478;2023-12-20T04:20:31;10.60;99.90
23147;DHT22;11742;53.532;-1.478;2023-12-20T04:23:16;10.50;99.90
23147;DHT22;11742;53.532;-1.478;2023-12-20T04:26:00;10.60;99.90
23147;DHT22;11742;53.532;-1.478;2023-12-20T04:28:44;10.60;99.90
23147;DHT22;11742;53.532;-1.478;2023-12-20T04:31:28;10.60;99.90
23147;DHT22;11742;53.532;-1.478;2023-12-20T04:34:13;10.60;99.90
23147;DHT22;11742;53.532;-1.478;2023-12-20T04:36:57;10.60;99.90
23147;DHT22;11742;53.532;-1.478;2023-12-20T04:39:41;10.60;99.90
23147;DHT22;11742;53.532;-1.478;2023-12-20T04:42:26;10.60;99.90
23147;DHT22;11742;53.532;-1.478;2023-12-20T04:45:10;10.60;99.90
23147;DHT22;11742;53.532;-1.478;2023-12-20T04:47:57;10.60;99.90
23147;DHT22;11742;53.532;-1.478;2023-12-20T04:50:41;10.60;99.90
23147;DHT22;11742;53.532;-1.478;2023-12-20T04:53:26;10.60;99.90
23147;DHT22;11742;53.532;-1.478;2023-12-20T04:56:11;10.60;99.90
23147;DHT22;11742;53.532;-1.478;2023-12-20T04:58:56;10.60;99.90
23147;DHT22;11742;53.532;-1.478;2023-12-20T05:01:40;10.60;99.90
23147;DHT22;11742;53.532;-1.478;2023-12-20T05:04:24;10.60;99.90
23147;DHT22;11742;53.532;-1.478;2023-12-20T05:07:08;10.60;99.90
23147;DHT22;11742;53.532;-1.478;2023-12-20T05:09:52;10.60;99.90
23147;DHT22;11742;53.532;-1.478;2023-12-20T05:12:37;10.60;99.90
23147;DHT22;11742;53.532;-1.478;2023-12-20T05:15:22;10.60;99.90
23147;DHT22;11742;53.532;-1.478;2023-12-20T05:18:06;10.60;99.90
23147;DHT22;11742;53.532;-1.478;2023-12-20T05:20:51;10.70;99.90
23147;DHT22;11742;53.532;-1.478;2023-12-20T05:23:36;10.70;99.90
23147;DHT22;11742;53.532;-1.478;2023-12-20T05:26:20;10.60;99.90
23147;DHT22;11742;53.532;-1.478;2023-12-20T05:29:04;10.60;99.90
23147;DHT22;11742;53.532;-1.478;2023-12-20T05:31:48;10.60;99.90
23147;DHT22;11742;53.532;-1.478;2023-12-20T05:34:32;10.70;99.90
23147;DHT22;11742;53.532;-1.478;2023-12-20T05:37:16;10.70;99.90
23147;DHT22;11742;53.532;-1.478;2023-12-20T05:40:00;10.70;99.90
23147;DHT22;11742;53.532;-1.478;2023-12-20T05:42:44;10.70;99.90
23147;DHT22;11742;53.532;-1.478;2023-12-20T05:45:29;10.70;99.90
23147;DHT22;11742;53.532;-1.478;2023-12-20T05:48:14;10.70;99.90
23147;DHT22;11742;53.532;-1.478;2023-12-20T05:50:58;10.70;99.90
23147;DHT22;11742;53.532;-1.478;2023-12-20T05:53:42;10.70;99.90
23147;DHT22;11742;53.532;-1.478;2023-12-20T05:56:26;10.70;99.90
23147;DHT22;11742;53.532;-1.478;2023-12-20T05:59:10;10.70;99.90
23147;DHT22;11742;53.532;-1.478;2023-12-20T06:01:54;10.70;99.90
23147;DHT22;11742;53.532;-1.478;2023-12-20T06:04:42;10.70;99.90
23147;DHT22;11742;53.532;-1.478;2023-12-20T06:07:27;10.70;99.90
23147;DHT22;11742;53.532;-1.478;2023-12-20T06:10:11;10.70;99.90
23147;DHT22;11742;53.532;-1.478;2023-12-20T06:12:55;10.70;99.90
23147;DHT22;11742;53.532;-1.478;2023-12-20T06:15:40;10.70;99.90
23147;DHT22;11742;53.532;-1.478;2023-12-20T06:18:24;10.70;99.90
23147;DHT22;11742;53.532;-1.478;2023-12-20T06:21:08;10.70;99.90
23147;DHT22;11742;53.532;-1.478;2023-12-20T06:23:58;10.70;99.90
23147;DHT22;11742;53.532;-1.478;2023-12-20T06:26:42;10.70;99.90
23147;DHT22;11742;53.532;-1.478;2023-12-20T06:29:27;10.70;99.90
23147;DHT22;11742;53.532;-1.478;2023-12-20T06:32:12;10.70;99.90
23147;DHT22;11742;53.532;-1.478;2023-12-20T06:34:56;10.70;99.90
23147;DHT22;11742;53.532;-1.478;2023-12-20T06:37:40;10.70;99.90
23147;DHT22;11742;53.532;-1.478;2023-12-20T06:40:26;10.70;99.90
23147;DHT22;11742;53.532;-1.478;2023-12-20T06:43:12;10.70;99.90
23147;DHT22;11742;53.532;-1.478;2023-12-20T06:45:58;10.70;99.90
23147;DHT22;11742;53.532;-1.478;2023-12-20T06:48:42;10.70;99.90
23147;DHT22;11742;53.532;-1.478;2023-12-20T06:51:28;10.70;99.90
23147;DHT22;11742;53.532;-1.478;2023-12-20T06:54:12;10.70;99.90
23147;DHT22;11742;53.532;-1.478;2023-12-20T06:56:56;10.70;99.90
23147;DHT22;11742;53.532;-1.478;2023-12-20T06:59:41;10.70;99.90
23147;DHT22;11742;53.532;-1.478;2023-12-20T07:02:25;10.70;99.90
23147;DHT22;11742;53.532;-1.478;2023-12-20T07:05:10;10.70;99.90
23147;DHT22;11742;53.532;-1.478;2023-12-20T07:07:54;10.70;99.90
23147;DHT22;11742;53.532;-1.478;2023-12-20T07:10:38;10.70;99.90
23147;DHT22;11742;53.532;-1.478;2023-12-20T07:13:22;10.80;99.90
23147;DHT22;11742;53.532;-1.478;2023-12-20T07:16:06;10.70;99.90
23147;DHT22;11742;53.532;-1.478;2023-12-20T07:18:50;10.70;99.90
23147;DHT22;11742;53.532;-1.478;2023-12-20T07:21:36;10.80;99.90
23147;DHT22;11742;53.532;-1.478;2023-12-20T07:24:20;10.70;99.90
23147;DHT22;11742;53.532;-1.478;2023-12-20T07:27:06;10.70;99.90
23147;DHT22;11742;53.532;-1.478;2023-12-20T07:29:50;10.70;99.90
23147;DHT22;11742;53.532;-1.478;2023-12-20T07:32:34;10.70;99.90
23147;DHT22;11742;53.532;-1.478;2023-12-20T07:35:18;10.80;99.90
23147;DHT22;11742;53.532;-1.478;2023-12-20T07:38:03;10.80;99.90
23147;DHT22;11742;53.532;-1.478;2023-12-20T07:40:47;10.70;99.90
23147;DHT22;11742;53.532;-1.478;2023-12-20T07:43:31;10.80;99.90
23147;DHT22;11742;53.532;-1.478;2023-12-20T07:46:15;10.70;99.90
23147;DHT22;11742;53.532;-1.478;2023-12-20T07:48:59;10.80;99.90
23147;DHT22;11742;53.532;-1.478;2023-12-20T07:51:43;10.80;99.90
23147;DHT22;11742;53.532;-1.478;2023-12-20T07:54:28;10.80;99.90
23147;DHT22;11742;53.532;-1.478;2023-12-20T07:57:12;10.80;99.90
23147;DHT22;11742;53.532;-1.478;2023-12-20T07:59:57;10.80;99.90
23147;DHT22;11742;53.532;-1.478;2023-12-20T08:02:41;10.80;99.90
23147;DHT22;11742;53.532;-1.478;2023-12-20T08:05:25;10.80;99.90
23147;DHT22;11742;53.532;-1.478;2023-12-20T08:08:10;10.80;99.90
23147;DHT22;11742;53.532;-1.478;2023-12-20T08:10:54;10.80;99.90
23147;DHT22;11742;53.532;-1.478;2023-12-20T08:13:39;10.80;99.90
23147;DHT22;11742;53.532;-1.478;2023-12-20T08:16:24;10.80;99.90
23147;DHT22;11742;53.532;-1.478;2023-12-20T08:19:08;10.80;99.90
23147;DHT22;11742;53.532;-1.478;2023-12-20T08:21:52;10.80;99.90
23147;DHT22;11742;53.532;-1.478;2023-12-20T08:24:37;10.80;99.90
23147;DHT22;11742;53.532;-1.478;2023-12-20T08:27:22;10.80;99.90
23147;DHT22;11742;53.532;-1.478;2023-12-20T08:30:08;10.80;99.90
23147;DHT22;11742;53.532;-1.478;2023-12-20T08:32:52;10.80;99.90
23147;DHT22;11742;53.532;-1.478;2023-12-20T08:35:40;10.90;99.90
23147;DHT22;11742;53.532;-1.478;2023-12-20T08:38:24;10.90;99.90
23147;DHT22;11742;53.532;-1.478;2023-12-20T08:41:08;10.90;99.90
23147;DHT22;11742;53.532;-1.478;2023-12-20T08:43:53;10.90;99.90
23147;DHT22;11742;53.532;-1.478;2023-12-20T08:46:37;10.90;99.90
23147;DHT22;11742;53.532;-1.478;2023-12-20T08:49:22;10.90;99.90
23147;DHT22;11742;53.532;-1.478;2023-12-20T08:52:06;10.90;99.90
23147;DHT22;11742;53.532;-1.478;2023-12-20T08:54:51;10.90;99.90
23147;DHT22;11742;53.532;-1.478;2023-12-20T08:57:37;10.90;99.90
23147;DHT22;11742;53.532;-1.478;2023-12-20T09:00:21;10.90;99.90
23147;DHT22;11742;53.532;-1.478;2023-12-20T09:03:08;10.90;99.90
23147;DHT22;11742;53.532;-1.478;2023-12-20T09:05:53;10.90;99.90
23147;DHT22;11742;53.532;-1.478;2023-12-20T09:08:37;10.90;99.90
23147;DHT22;11742;53.532;-1.478;2023-12-20T09:11:21;10.90;99.90
23147;DHT22;11742;53.532;-1.478;2023-12-20T09:14:05;10.90;99.90
23147;DHT22;11742;53.532;-1.478;2023-12-20T09:16:49;10.90;99.90
23147;DHT22;11742;53.532;-1.478;2023-12-20T09:19:35;10.90;99.90
23147;DHT22;11742;53.532;-1.478;2023-12-20T09:22:19;10.90;99.90
23147;DHT22;11742;53.532;-1.478;2023-12-20T09:25:05;10.90;99.90
23147;DHT22;11742;53.532;-1.478;2023-12-20T09:27:49;10.90;99.90
23147;DHT22;11742;53.532;-1.478;2023-12-20T09:30:33;11.00;99.90
23147;DHT22;11742;53.532;-1.478;2023-12-20T09:33:19;10.90;99.90
23147;DHT22;11742;53.532;-1.478;2023-12-20T09:36:04;11.00;99.90
23147;DHT22;11742;53.532;-1.478;2023-12-20T09:38:48;11.00;99.90
23147;DHT22;11742;53.532;-1.478;2023-12-20T09:41:37;11.00;99.90
23147;DHT22;11742;53.532;-1.478;2023-12-20T09:44:27;11.00;99.90
23147;DHT22;11742;53.532;-1.478;2023-12-20T09:47:11;11.00;99.90
23147;DHT22;11742;53.532;-1.478;2023-12-20T09:49:56;11.00;99.90
23147;DHT22;11742;53.532;-1.478;2023-12-20T09:52:41;11.00;99.90
23147;DHT22;11742;53.532;-1.478;2023-12-20T09:55:28;11.00;99.90
23147;DHT22;11742;53.532;-1.478;2023-12-20T09:58:13;11.10;99.90
23147;DHT22;11742;53.532;-1.478;2023-12-20T10:04:19;11.10;99.90
23147;DHT22;11742;53.532;-1.478;2023-12-20T10:07:04;11.10;99.90
23147;DHT22;11742;53.532;-1.478;2023-12-20T10:09:49;11.10;99.90
23147;DHT22;11742;53.532;-1.478;2023-12-20T10:12:34;11.10;99.90
23147;DHT22;11742;53.532;-1.478;2023-12-20T10:15:18;11.10;99.90
23147;DHT22;11742;53.532;-1.478;2023-12-20T10:18:03;11.10;99.90
23147;DHT22;11742;53.532;-1.478;2023-12-20T10:20:48;11.10;99.90
23147;DHT22;11742;53.532;-1.478;2023-12-20T10:23:32;11.10;99.90
23147;DHT22;11742;53.532;-1.478;2023-12-20T10:26:21;11.10;99.90
23147;DHT22;11742;53.532;-1.478;2023-12-20T10:29:06;11.10;99.90
23147;DHT22;11742;53.532;-1.478;2023-12-20T10:31:50;11.10;99.90
23147;DHT22;11742;53.532;-1.478;2023-12-20T10:34:34;11.20;99.90
23147;DHT22;11742;53.532;-1.478;2023-12-20T10:37:18;11.20;99.90
23147;DHT22;11742;53.532;-1.478;2023-12-20T10:40:04;11.20;99.90
23147;DHT22;11742;53.532;-1.478;2023-12-20T10:42:50;11.20;99.90
23147;DHT22;11742;53.532;-1.478;2023-12-20T10:45:35;11.20;99.90
23147;DHT22;11742;53.532;-1.478;2023-12-20T10:48:20;11.20;99.90
23147;DHT22;11742;53.532;-1.478;2023-12-20T10:51:06;11.30;99.90
23147;DHT22;11742;53.532;-1.478;2023-12-20T10:53:51;11.30;99.90
23147;DHT22;11742;53.532;-1.478;2023-12-20T10:56:38;11.30;99.90
23147;DHT22;11742;53.532;-1.478;2023-12-20T10:59:23;11.30;99.90
23147;DHT22;11742;53.532;-1.478;2023-12-20T11:02:08;11.30;99.90
23147;DHT22;11742;53.532;-1.478;2023-12-20T11:08:22;11.30;99.90
23147;DHT22;11742;53.532;-1.478;2023-12-20T11:11:21;11.30;99.90
23147;DHT22;11742;53.532;-1.478;2023-12-20T11:14:12;11.40;99.90
23147;DHT22;11742;53.532;-1.478;2023-12-20T11:17:07;11.40;99.90
23147;DHT22;11742;53.532;-1.478;2023-12-20T11:22:53;11.40;99.90
23147;DHT22;11742;53.532;-1.478;2023-12-20T11:28:32;11.40;99.90
23147;DHT22;11742;53.532;-1.478;2023-12-20T11:31:17;11.50;99.90
23147;DHT22;11742;53.532;-1.478;2023-12-20T11:34:14;11.50;99.90
23147;DHT22;11742;53.532;-1.478;2023-12-20T11:37:02;11.50;99.90
23147;DHT22;11742;53.532;-1.478;2023-12-20T11:40:00;11.50;99.90
23147;DHT22;11742;53.532;-1.478;2023-12-20T11:42:45;11.50;99.90
23147;DHT22;11742;53.532;-1.478;2023-12-20T11:45:32;11.50;99.90
23147;DHT22;11742;53.532;-1.478;2023-12-20T11:48:16;11.60;99.90
23147;DHT22;11742;53.532;-1.478;2023-12-20T11:51:01;11.60;99.90
23147;DHT22;11742;53.532;-1.478;2023-12-20T11:53:51;11.60;99.90
23147;DHT22;11742;53.532;-1.478;2023-12-20T11:56:36;11.60;99.90
23147;DHT22;11742;53.532;-1.478;2023-12-20T11:59:20;11.60;99.90
23147;DHT22;11742;53.532;-1.478;2023-12-20T12:02:05;11.60;99.90
23147;DHT22;11742;53.532;-1.478;2023-12-20T12:04:50;11.70;99.90
23147;DHT22;11742;53.532;-1.478;2023-12-20T12:07:37;11.70;99.90
23147;DHT22;11742;53.532;-1.478;2023-12-20T12:10:22;11.70;99.90
23147;DHT22;11742;53.532;-1.478;2023-12-20T12:13:07;11.70;99.90
23147;DHT22;11742;53.532;-1.478;2023-12-20T12:15:51;11.70;99.90
23147;DHT22;11742;53.532;-1.478;2023-12-20T12:18:36;11.70;99.90
23147;DHT22;11742;53.532;-1.478;2023-12-20T12:21:20;11.80;99.90
23147;DHT22;11742;53.532;-1.478;2023-12-20T12:24:10;11.80;99.90
23147;DHT22;11742;53.532;-1.478;2023-12-20T12:26:57;11.80;99.90
23147;DHT22;11742;53.532;-1.478;2023-12-20T12:30:03;11.80;99.90
23147;DHT22;11742;53.532;-1.478;2023-12-20T12:32:47;11.90;99.90
23147;DHT22;11742;53.532;-1.478;2023-12-20T12:35:32;11.90;99.90
23147;DHT22;11742;53.532;-1.478;2023-12-20T12:38:16;11.90;99.90
23147;DHT22;11742;53.532;-1.478;2023-12-20T12:41:00;11.90;99.90
23147;DHT22;11742;53.532;-1.478;2023-12-20T12:43:45;11.90;99.90
23147;DHT22;11742;53.532;-1.478;2023-12-20T12:46:29;11.90;99.90
23147;DHT22;11742;53.532;-1.478;2023-12-20T12:49:14;12.00;99.90
23147;DHT22;11742;53.532;-1.478;2023-12-20T12:51:58;12.00;99.90
23147;DHT22;11742;53.532;-1.478;2023-12-20T12:54:42;12.00;99.90
23147;DHT22;11742;53.532;-1.478;2023-12-20T12:57:28;12.00;99.90
23147;DHT22;11742;53.532;-1.478;2023-12-20T13:00:13;12.00;99.90
23147;DHT22;11742;53.532;-1.478;2023-12-20T13:02:58;12.10;99.90
23147;DHT22;11742;53.532;-1.478;2023-12-20T13:05:42;12.10;99.90
23147;DHT22;11742;53.532;-1.478;2023-12-20T13:08:27;12.10;99.90
23147;DHT22;11742;53.532;-1.478;2023-12-20T13:11:13;12.10;99.90
23147;DHT22;11742;53.532;-1.478;2023-12-20T13:13:57;12.10;99.90
23147;DHT22;11742;53.532;-1.478;2023-12-20T13:16:41;12.20;99.90
23147;DHT22;11742;53.532;-1.478;2023-12-20T13:19:26;12.20;99.90
23147;DHT22;11742;53.532;-1.478;2023-12-20T13:22:11;12.20;99.90
23147;DHT22;11742;53.532;-1.478;2023-12-20T13:24:55;12.20;99.90
23147;DHT22;11742;53.532;-1.478;2023-12-20T13:27:39;12.20;99.90
23147;DHT22;11742;53.532;-1.478;2023-12-20T13:30:23;12.30;99.90
23147;DHT22;11742;53.532;-1.478;2023-12-20T13:33:08;12.30;99.90
23147;DHT22;11742;53.532;-1.478;2023-12-20T13:35:52;12.30;99.90
23147;DHT22;11742;53.532;-1.478;2023-12-20T13:38:37;12.30;99.90
23147;DHT22;11742;53.532;-1.478;2023-12-20T13:41:22;12.30;99.90
23147;DHT22;11742;53.532;-1.478;2023-12-20T13:44:06;12.40;99.90
23147;DHT22;11742;53.532;-1.478;2023-12-20T13:46:50;12.40;99.90
23147;DHT22;11742;53.532;-1.478;2023-12-20T13:49:34;12.40;99.90
23147;DHT22;11742;53.532;-1.478;2023-12-20T13:52:19;12.40;99.90
23147;DHT22;11742;53.532;-1.478;2023-12-20T13:55:03;12.40;99.90
23147;DHT22;11742;53.532;-1.478;2023-12-20T13:57:49;12.40;99.90
23147;DHT22;11742;53.532;-1.478;2023-12-20T14:00:33;12.50;99.90
23147;DHT22;11742;53.532;-1.478;2023-12-20T14:03:18;12.50;99.90
23147;DHT22;11742;53.532;-1.478;2023-12-20T14:06:04;12.50;99.90
23147;DHT22;11742;53.532;-1.478;2023-12-20T14:08:48;12.50;99.90
23147;DHT22;11742;53.532;-1.478;2023-12-20T14:11:32;12.50;99.90
23147;DHT22;11742;53.532;-1.478;2023-12-20T14:14:16;12.60;99.90
23147;DHT22;11742;53.532;-1.478;2023-12-20T14:17:01;12.60;99.90
23147;DHT22;11742;53.532;-1.478;2023-12-20T14:19:45;12.60;99.90
23147;DHT22;11742;53.532;-1.478;2023-12-20T14:22:29;12.60;99.90
23147;DHT22;11742;53.532;-1.478;2023-12-20T14:25:14;12.60;99.90
23147;DHT22;11742;53.532;-1.478;2023-12-20T14:27:59;12.60;99.90
23147;DHT22;11742;53.532;-1.478;2023-12-20T14:30:43;12.70;99.90
23147;DHT22;11742;53.532;-1.478;2023-12-20T14:33:28;12.60;99.90
23147;DHT22;11742;53.532;-1.478;2023-12-20T14:36:12;12.70;99.90
23147;DHT22;11742;53.532;-1.478;2023-12-20T14:38:57;12.70;99.90
23147;DHT22;11742;53.532;-1.478;2023-12-20T14:41:42;12.70;99.90
23147;DHT22;11742;53.532;-1.478;2023-12-20T14:44:26;12.70;99.90
23147;DHT22;11742;53.532;-1.478;2023-12-20T14:47:11;12.70;99.90
23147;DHT22;11742;53.532;-1.478;2023-12-20T14:49:55;12.70;99.90
23147;DHT22;11742;53.532;-1.478;2023-12-20T14:52:39;12.70;99.90
23147;DHT22;11742;53.532;-1.478;2023-12-20T14:55:23;12.70;99.90
23147;DHT22;11742;53.532;-1.478;2023-12-20T14:58:08;12.80;99.90
23147;DHT22;11742;53.532;-1.478;2023-12-20T15:00:52;12.80;99.90
23147;DHT22;11742;53.532;-1.478;2023-12-20T15:03:36;12.80;99.90
23147;DHT22;11742;53.532;-1.478;2023-12-20T15:06:20;12.80;99.90
23147;DHT22;11742;53.532;-1.478;2023-12-20T15:09:06;12.80;99.90
23147;DHT22;11742;53.532;-1.478;2023-12-20T15:11:50;12.80;99.90
23147;DHT22;11742;53.532;-1.478;2023-12-20T15:14:34;12.80;99.90
23147;DHT22;11742;53.532;-1.478;2023-12-20T15:17:19;12.80;99.90
23147;DHT22;11742;53.532;-1.478;2023-12-20T15:20:03;12.80;99.90
23147;DHT22;11742;53.532;-1.478;2023-12-20T15:22:54;12.80;99.90
23147;DHT22;11742;53.532;-1.478;2023-12-20T15:25:39;12.80;99.90
23147;DHT22;11742;53.532;-1.478;2023-12-20T15:28:24;12.80;99.90
23147;DHT22;11742;53.532;-1.478;2023-12-20T15:31:08;12.80;99.90
23147;DHT22;11742;53.532;-1.478;2023-12-20T15:33:52;12.90;99.90
23147;DHT22;11742;53.532;-1.478;2023-12-20T15:36:37;12.90;99.90
23147;DHT22;11742;53.532;-1.478;2023-12-20T15:39:22;12.90;99.90
23147;DHT22;11742;53.532;-1.478;2023-12-20T15:42:07;12.90;99.90
23147;DHT22;11742;53.532;-1.478;2023-12-20T15:44:51;12.90;99.90
23147;DHT22;11742;53.532;-1.478;2023-12-20T15:47:35;12.90;99.90
23147;DHT22;11742;53.532;-1.478;2023-12-20T15:50:20;12.90;99.90
23147;DHT22;11742;53.532;-1.478;2023-12-20T15:53:04;12.90;99.90
23147;DHT22;11742;53.532;-1.478;2023-12-20T15:55:49;12.90;99.90
23147;DHT22;11742;53.532;-1.478;2023-12-20T15:58:33;12.90;99.90
23147;DHT22;11742;53.532;-1.478;2023-12-20T16:01:18;12.90;99.90
23147;DHT22;11742;53.532;-1.478;2023-12-20T16:04:02;12.90;99.90
23147;DHT22;11742;53.532;-1.478;2023-12-20T16:06:47;12.90;99.90
23147;DHT22;11742;53.532;-1.478;2023-12-20T16:09:31;12.90;99.90
23147;DHT22;11742;53.532;-1.478;2023-12-20T16:12:16;12.90;99.90
23147;DHT22;11742;53.532;-1.478;2023-12-20T16:15:00;12.90;99.90
23147;DHT22;11742;53.532;-1.478;2023-12-20T16:17:45;12.90;99.90
23147;DHT22;11742;53.532;-1.478;2023-12-20T16:20:29;13.00;99.90
23147;DHT22;11742;53.532;-1.478;2023-12-20T16:23:13;12.90;99.90
23147;DHT22;11742;53.532;-1.478;2023-12-20T16:25:57;12.90;99.90
23147;DHT22;11742;53.532;-1.478;2023-12-20T16:28:42;12.90;99.90
23147;DHT22;11742;53.532;-1.478;2023-12-20T16:31:26;12.90;99.90
23147;DHT22;11742;53.532;-1.478;2023-12-20T16:34:10;12.90;99.90
23147;DHT22;11742;53.532;-1.478;2023-12-20T16:36:54;12.90;99.90
23147;DHT22;11742;53.532;-1.478;2023-12-20T16:39:38;12.90;99.90
23147;DHT22;11742;53.532;-1.478;2023-12-20T16:42:23;12.90;99.90
23147;DHT22;11742;53.532;-1.478;2023-12-20T16:45:08;12.90;99.90
23147;DHT22;11742;53.532;-1.478;2023-12-20T16:47:53;12.90;99.90
23147;DHT22;11742;53.532;-1.478;2023-12-20T16:50:38;12.90;99.90
23147;DHT22;11742;53.532;-1.478;2023-12-20T16:53:22;12.90;99.90
23147;DHT22;11742;53.532;-1.478;2023-12-20T16:56:07;12.90;99.90
23147;DHT22;11742;53.532;-1.478;2023-12-20T16:58:51;12.90;99.90
23147;DHT22;11742;53.532;-1.478;2023-12-20T17:01:35;12.90;99.90
23147;DHT22;11742;53.532;-1.478;2023-12-20T17:04:20;12.90;99.90
23147;DHT22;11742;53.532;-1.478;2023-12-20T17:07:07;12.90;99.90
23147;DHT22;11742;53.532;-1.478;2023-12-20T17:09:51;12.90;99.90
23147;DHT22;11742;53.532;-1.478;2023-12-20T17:12:35;12.90;99.90
23147;DHT22;11742;53.532;-1.478;2023-12-20T17:15:19;12.90;99.90